PWSweather.com
Personal Weather Stations
Station Observations

LasarteES

Lat: 43.268748, Lon: -2.019531

Elevation: 55

Station Type: DAVIS VP2

http://www.meteolasarte.com/

Latest ConditionsUpdated 5:32:04 AM GMT+01:01 Saturday, Aug 18, 2018
Currently Today's Max Today's Min Today's Average
Temperature 60.1°F15.6°C 61.0°F16.1°C 59.7°F15.4°C 60.4°F15.8°C
Dew Point 56.8°F13.8°C 57.6°F14.2°C 56.8°F13.8°C 57.2°F14.0°C
Winds 2.9 mph SE4.7 kmh SE 4.0 mph -6.4 kmh - - 1.5 mph 2.4 kmh
Wind Gusts 2.0 mph3.2 kmh 6.0 mph9.7 kmh - -
Humidity 89% 91% 88% 89%
Pressure 30.24 in1024.0 mb 30.28 in1025.4 mb 30.24 in1024.0 mb -
Hour Temp Dew Point Humidity Winds Wind Gusts Pressure Precip Precip Rate Daily Precip Total
05:32 AM 60.1°F15.6°C 56.8°F13.8°C 89% 2.9 mph SE4.7 kmh SE 2.0 mph3.2 kmh 30.24 in1024.0 mb - 0.00 in0.0 mm 0.00 in0.0 mm
05:17 AM 60.4°F15.8°C 57.6°F14.2°C 90% 2.9 mph SE4.7 kmh SE 6.0 mph9.7 kmh 30.24 in1024.0 mb - 0.00 in0.0 mm 0.00 in0.0 mm
05:02 AM 60.4°F15.8°C 57.2°F14.0°C 89% 2.9 mph ESE4.7 kmh ESE 0.9 mph1.4 kmh 30.24 in1024.0 mb - 0.00 in0.0 mm 0.00 in0.0 mm
04:47 AM 60.4°F15.8°C 57.2°F14.0°C 89% Calm Calm -- 30.24 in1024.0 mb - 0.00 in0.0 mm 0.00 in0.0 mm
04:32 AM 60.3°F15.7°C 57.0°F13.9°C 89% 2.0 mph SE3.2 kmh SE 4.0 mph6.4 kmh 30.24 in1024.0 mb - 0.00 in0.0 mm 0.00 in0.0 mm
04:17 AM 60.3°F15.7°C 57.4°F14.1°C 90% 2.9 mph SE4.7 kmh SE 4.9 mph7.9 kmh 30.24 in1024.0 mb - 0.00 in0.0 mm 0.00 in0.0 mm
04:02 AM 60.3°F15.7°C 57.4°F14.1°C 90% 2.0 mph SE3.2 kmh SE 4.9 mph7.9 kmh 30.25 in1024.4 mb - 0.00 in0.0 mm 0.00 in0.0 mm
03:47 AM 60.3°F15.7°C 57.4°F14.1°C 90% 4.0 mph SE6.4 kmh SE 4.9 mph7.9 kmh 30.25 in1024.4 mb - 0.00 in0.0 mm 0.00 in0.0 mm
03:32 AM 60.3°F15.7°C 57.4°F14.1°C 90% 2.9 mph SE4.7 kmh SE -- 30.25 in1024.4 mb - 0.00 in0.0 mm 0.00 in0.0 mm
03:17 AM 60.3°F15.7°C 57.4°F14.1°C 90% 0.9 mph SE1.4 kmh SE 2.0 mph3.2 kmh 30.25 in1024.4 mb - 0.00 in0.0 mm 0.00 in0.0 mm
03:02 AM 60.3°F15.7°C 57.6°F14.2°C 91% Calm Calm -- 30.25 in1024.4 mb - 0.00 in0.0 mm 0.00 in0.0 mm
02:47 AM 60.1°F15.6°C 57.4°F14.1°C 91% Calm Calm -- 30.25 in1024.4 mb - 0.00 in0.0 mm 0.00 in0.0 mm
02:32 AM 59.7°F15.4°C 56.8°F13.8°C 90% Calm Calm -- 30.26 in1024.7 mb - 0.00 in0.0 mm 0.00 in0.0 mm
02:17 AM 60.1°F15.6°C 57.2°F14.0°C 90% 0.9 mph SE1.4 kmh SE 4.0 mph6.4 kmh 30.26 in1024.7 mb - 0.00 in0.0 mm 0.00 in0.0 mm
02:02 AM 60.1°F15.6°C 57.2°F14.0°C 90% 0.9 mph SE1.4 kmh SE 2.0 mph3.2 kmh 30.27 in1025.1 mb - 0.00 in0.0 mm 0.00 in0.0 mm
01:47 AM 60.3°F15.7°C 57.0°F13.9°C 89% 0.9 mph SE1.4 kmh SE 2.0 mph3.2 kmh 30.27 in1025.1 mb - 0.00 in0.0 mm 0.00 in0.0 mm
01:32 AM 60.6°F15.9°C 57.4°F14.1°C 89% 2.9 mph SE4.7 kmh SE 6.0 mph9.7 kmh 30.27 in1025.1 mb - 0.00 in0.0 mm 0.00 in0.0 mm
01:17 AM 60.6°F15.9°C 57.0°F13.9°C 88% 0.9 mph SE1.4 kmh SE 2.0 mph3.2 kmh 30.27 in1025.1 mb - 0.00 in0.0 mm 0.00 in0.0 mm
01:02 AM 60.6°F15.9°C 57.0°F13.9°C 88% 2.0 mph SE3.2 kmh SE -- 30.27 in1025.1 mb - 0.00 in0.0 mm 0.00 in0.0 mm
12:47 AM 60.4°F15.8°C 57.2°F14.0°C 89% 2.0 mph SE3.2 kmh SE 4.0 mph6.4 kmh 30.28 in1025.4 mb - 0.00 in0.0 mm 0.00 in0.0 mm
12:32 AM 60.6°F15.9°C 57.4°F14.1°C 89% Calm Calm -- 30.28 in1025.4 mb - 0.00 in0.0 mm 0.00 in0.0 mm
12:17 AM 60.6°F15.9°C 57.0°F13.9°C 88% 0.9 mph SE1.4 kmh SE -- 30.28 in1025.4 mb - 0.00 in0.0 mm 0.00 in0.0 mm
12:02 AM 61.0°F16.1°C 57.4°F14.1°C 88% Calm Calm -- 30.28 in1025.4 mb - 0.00 in0.0 mm 0.00 in0.0 mm